LEXJ/SDR METAR and TAF weather

Enter ICAO airport designator
Station Type Date Time Source
LEXJ METAR 2021/06/24 05:30 UTC NOAA

LEXJ 240530Z 23005KT 9999 FEW034 SCT050 14/12 Q1024


Station Type Date Time Source
LEXJ Decoded METAR 2021/06/24 05:30 UTC NOAA

Santander / Parayas, Spain (LEXJ) 43-26N 003-49W 9M
Jun 24, 2021 - 01:30 AM EDT / 2021.06.24 0530 UTC
Wind: from the SW (230 degrees) at 6 MPH (5 KT):0
Visibility: greater than 7 mile(s):0
Sky conditions: partly cloudy
Temperature: 57 F (14 C)
Dew Point: 53 F (12 C)
Relative Humidity: 87%
Pressure (altimeter): 30.24 in. Hg (1024 hPa)
ob: LEXJ 240530Z 23005KT 9999 FEW034 SCT050 14/12 Q1024
cycle: 5

Station Type Date Time Source
LEXJ TAF 2021/06/24 03:27 UTC NOAA

TAF TAF LEXJ 240200Z 2403/2503 22006KT 9999 BKN020 TX20/2414Z TN11/2503Z PROB30
TEMPO 2403/2406 3000 -RADZ BR BKN010
TEMPO 2412/2420 04010KT PROB40
TEMPO 2421/2503 3000 BR BKN010

Example: see airport list